Time;durP1;ratioP1;P1;durP2;ratioP2;P2;SDS_P1;SDS_P2;PMS_P1;PMS_P2;Temp;Humidity;BMP_temperature;BMP_pressure;BME280_temperature;BME280_humidity;BME280_pressure;Samples;Min_cycle;Max_cycle;Signal;HPM_P1;HPM_P2
2023/06/08 00:00:00;;;;;;;4.33;3.93;;;17.30;99.90;;;;;;5065251;28;20206;-78
2023/06/08 00:02:28;;;;;;;4.23;3.93;;;17.30;99.90;;;;;;5072617;28;20187;-79
2023/06/08 00:04:54;;;;;;;4.20;4.00;;;17.30;99.90;;;;;;5064035;28;20174;-78
2023/06/08 00:07:21;;;;;;;4.80;4.40;;;17.30;99.90;;;;;;5055679;28;20186;-78
2023/06/08 00:09:47;;;;;;;4.53;4.20;;;17.30;99.90;;;;;;5075251;28;20165;-78
2023/06/08 00:12:13;;;;;;;4.30;4.00;;;17.20;99.90;;;;;;5077750;28;20217;-79
2023/06/08 00:14:39;;;;;;;5.03;4.37;;;17.20;99.90;;;;;;5069682;28;20236;-79
2023/06/08 00:17:05;;;;;;;4.37;4.00;;;17.30;99.90;;;;;;5061146;28;20168;-77
2023/06/08 00:19:32;;;;;;;4.90;4.40;;;17.30;99.90;;;;;;5064690;28;20159;-78
2023/06/08 00:21:59;;;;;;;4.63;4.30;;;17.30;99.90;;;;;;5077540;28;20190;-78
2023/06/08 00:24:25;;;;;;;4.33;4.00;;;17.30;99.90;;;;;;5064688;28;20254;-77
2023/06/08 00:26:51;;;;;;;5.50;4.57;;;17.30;99.90;;;;;;5056797;28;20229;-76
2023/06/08 00:29:17;;;;;;;5.87;4.20;;;17.30;99.90;;;;;;5053363;28;20175;-77
2023/06/08 00:31:43;;;;;;;4.50;4.20;;;17.30;99.90;;;;;;5052645;28;20670;-78
2023/06/08 00:34:09;;;;;;;4.70;4.33;;;17.20;99.90;;;;;;5033970;28;20212;-78
2023/06/08 00:36:36;;;;;;;4.27;3.87;;;17.10;99.90;;;;;;5053662;28;20278;-79
2023/06/08 00:39:02;;;;;;;4.33;4.00;;;17.00;99.90;;;;;;5056338;28;20167;-78
2023/06/08 00:41:29;;;;;;;4.30;4.00;;;17.00;99.90;;;;;;5064461;28;20175;-77
2023/06/08 00:43:55;;;;;;;4.77;4.37;;;17.00;99.90;;;;;;5056584;28;20172;-78
2023/06/08 00:46:22;;;;;;;4.60;4.20;;;17.00;99.90;;;;;;5056017;28;20680;-79
2023/06/08 00:48:47;;;;;;;4.50;4.10;;;17.00;99.90;;;;;;5055903;28;20172;-78
2023/06/08 00:51:16;;;;;;;4.27;3.90;;;17.10;99.90;;;;;;5055538;28;20764;-78
2023/06/08 00:53:41;;;;;;;4.20;4.00;;;17.00;99.90;;;;;;5055281;28;20520;-77
2023/06/08 00:56:07;;;;;;;6.90;4.30;;;17.00;99.90;;;;;;5055313;28;20211;-80
2023/06/08 00:58:36;;;;;;;4.67;4.13;;;16.90;99.90;;;;;;5055199;28;20184;-77
2023/06/08 01:01:03;;;;;;;5.00;4.50;;;16.80;99.90;;;;;;5055613;28;20175;-76
2023/06/08 01:03:35;;;;;;;4.40;4.10;;;16.70;99.90;;;;;;5054969;28;20187;-79
2023/06/08 01:06:07;;;;;;;4.20;3.90;;;16.70;99.90;;;;;;5055464;28;20858;-77
2023/06/08 01:08:52;;;;;;;4.37;3.93;;;16.70;99.90;;;;;;5054960;28;20170;-78
2023/06/08 01:11:33;;;;;;;4.37;4.07;;;16.60;99.90;;;;;;5055077;28;20651;-78
2023/06/08 01:14:07;;;;;;;4.13;3.83;;;16.60;99.90;;;;;;5055113;28;20164;-78
2023/06/08 01:16:39;;;;;;;4.53;4.23;;;16.60;99.90;;;;;;5055583;28;20170;-78
2023/06/08 01:19:10;;;;;;;4.27;3.97;;;16.70;99.90;;;;;;5037021;28;20174;-77
2023/06/08 01:21:42;;;;;;;4.50;4.23;;;16.60;99.90;;;;;;5055284;28;20167;-78
2023/06/08 01:24:14;;;;;;;4.27;3.97;;;16.70;99.90;;;;;;5054707;28;20167;-79
2023/06/08 01:26:49;;;;;;;4.67;4.27;;;16.70;99.90;;;;;;5054825;28;20243;-80
2023/06/08 01:29:17;;;;;;;5.30;4.00;;;16.60;99.90;;;;;;5054688;28;20187;-78
2023/06/08 01:31:43;;;;;;;4.70;4.27;;;16.50;99.90;;;;;;5054689;28;20202;-78
2023/06/08 01:34:11;;;;;;;4.57;4.17;;;16.50;99.90;;;;;;5054343;28;20278;-80
2023/06/08 01:36:59;;;;;;;4.47;4.17;;;16.40;99.90;;;;;;5054654;28;20173;-77
2023/06/08 01:39:40;;;;;;;5.30;4.70;;;16.40;99.90;;;;;;5036547;28;20185;-78
2023/06/08 01:42:07;;;;;;;4.17;3.87;;;16.30;99.90;;;;;;5036476;28;20194;-79
2023/06/08 01:44:44;;;;;;;4.17;3.87;;;16.40;99.90;;;;;;5054315;28;20164;-78
2023/06/08 01:47:14;;;;;;;4.63;4.27;;;16.30;99.90;;;;;;5054872;28;20160;-79
2023/06/08 01:49:42;;;;;;;4.40;4.10;;;16.40;99.90;;;;;;5057049;28;20188;-79
2023/06/08 01:52:08;;;;;;;4.50;4.17;;;16.30;99.90;;;;;;5054115;28;20225;-78
2023/06/08 01:54:34;;;;;;;4.23;3.93;;;16.30;99.90;;;;;;5054227;28;20272;-78
2023/06/08 01:56:59;;;;;;;4.50;4.20;;;16.20;99.90;;;;;;5053783;28;20188;-80
2023/06/08 01:59:25;;;;;;;4.40;4.10;;;16.20;99.90;;;;;;5036120;28;20186;-78
2023/06/08 02:01:51;;;;;;;4.73;4.23;;;16.20;99.90;;;;;;5054290;28;20176;-79
2023/06/08 02:04:17;;;;;;;4.40;4.00;;;16.10;99.90;;;;;;5054073;28;20643;-77
2023/06/08 02:06:42;;;;;;;4.50;4.20;;;16.10;99.90;;;;;;5054282;28;20184;-80
2023/06/08 02:09:08;;;;;;;4.00;3.80;;;16.10;99.90;;;;;;5053965;28;20299;-79
2023/06/08 02:11:34;;;;;;;4.63;4.23;;;16.10;99.90;;;;;;5054077;28;20628;-79
2023/06/08 02:13:59;;;;;;;4.07;3.87;;;16.10;99.90;;;;;;5053664;28;20168;-79
2023/06/08 02:16:26;;;;;;;4.40;4.10;;;16.00;99.90;;;;;;5053896;28;20179;-79
2023/06/08 02:18:52;;;;;;;4.20;3.90;;;16.10;99.90;;;;;;5053735;28;20182;-79
2023/06/08 02:21:19;;;;;;;4.27;3.97;;;16.10;99.90;;;;;;5035889;28;20187;-78
2023/06/08 02:23:44;;;;;;;4.30;4.00;;;16.00;99.90;;;;;;5053500;28;20191;-78
2023/06/08 02:26:10;;;;;;;4.73;4.07;;;16.00;99.90;;;;;;5053882;28;20635;-79
2023/06/08 02:28:36;;;;;;;4.43;4.10;;;16.00;99.90;;;;;;5053714;28;20619;-79
2023/06/08 02:31:03;;;;;;;4.77;4.30;;;16.00;99.90;;;;;;5053955;28;20172;-78
2023/06/08 02:33:28;;;;;;;4.67;4.30;;;16.00;99.90;;;;;;5053617;28;20164;-79
2023/06/08 02:35:54;;;;;;;4.77;4.27;;;16.10;99.90;;;;;;5053931;28;20553;-78
2023/06/08 02:38:20;;;;;;;4.40;4.10;;;16.10;99.90;;;;;;5054848;28;20167;-79
2023/06/08 02:40:46;;;;;;;4.53;4.10;;;16.10;99.90;;;;;;5054402;28;20231;-77
2023/06/08 02:43:12;;;;;;;4.30;4.10;;;16.00;99.90;;;;;;5040655;28;20176;-79
2023/06/08 02:45:39;;;;;;;4.40;4.10;;;16.00;99.90;;;;;;5060387;28;20192;-79
2023/06/08 02:48:05;;;;;;;4.67;4.27;;;15.90;99.90;;;;;;5058128;28;20191;-78
2023/06/08 02:50:31;;;;;;;4.97;4.57;;;15.90;99.90;;;;;;5056490;28;20230;-79
2023/06/08 02:52:56;;;;;;;4.53;4.23;;;15.90;99.90;;;;;;5053816;28;20202;-80
2023/06/08 02:55:22;;;;;;;4.90;4.07;;;15.90;99.90;;;;;;5053220;28;20219;-77
2023/06/08 02:57:52;;;;;;;5.03;4.47;;;15.90;99.90;;;;;;5053283;28;20196;-80
2023/06/08 03:00:20;;;;;;;4.63;4.33;;;15.80;99.90;;;;;;5052986;28;20259;-79
2023/06/08 03:02:45;;;;;;;4.47;4.17;;;15.70;99.90;;;;;;5053370;28;20184;-79
2023/06/08 03:05:13;;;;;;;4.47;4.17;;;15.80;99.90;;;;;;5052829;28;20189;-78
2023/06/08 03:07:41;;;;;;;4.30;4.00;;;15.80;99.90;;;;;;5052060;28;20176;-79
2023/06/08 03:10:08;;;;;;;3.67;3.47;;;15.90;99.90;;;;;;5052674;28;20536;-78
2023/06/08 03:12:34;;;;;;;3.47;3.27;;;15.90;99.90;;;;;;5052892;28;20176;-79
2023/06/08 03:14:59;;;;;;;3.70;3.50;;;15.80;99.90;;;;;;5052703;28;20211;-79
2023/06/08 03:17:26;;;;;;;4.23;3.93;;;15.80;99.90;;;;;;5052762;28;20580;-79
2023/06/08 03:19:53;;;;;;;3.83;3.63;;;15.90;99.90;;;;;;5052345;28;20632;-79
2023/06/08 03:22:20;;;;;;;4.00;3.63;;;15.90;99.90;;;;;;5052724;28;20688;-79
2023/06/08 03:24:49;;;;;;;3.60;3.40;;;15.90;99.90;;;;;;5052566;28;20206;-79
2023/06/08 03:27:16;;;;;;;3.67;3.47;;;16.00;99.90;;;;;;5052858;28;20188;-79
2023/06/08 03:29:42;;;;;;;4.23;3.93;;;16.00;99.90;;;;;;5052373;28;20172;-79
2023/06/08 03:32:08;;;;;;;4.30;3.90;;;15.90;99.90;;;;;;5052453;28;20179;-79
2023/06/08 03:34:34;;;;;;;4.07;3.77;;;15.80;99.90;;;;;;5052379;28;20210;-79
2023/06/08 03:37:01;;;;;;;3.90;3.60;;;15.90;99.90;;;;;;5052678;28;20181;-78
2023/06/08 03:39:26;;;;;;;3.70;3.50;;;15.90;99.90;;;;;;5055394;28;20330;-77
2023/06/08 03:41:53;;;;;;;3.93;3.63;;;15.90;99.90;;;;;;5052777;28;20257;-80
2023/06/08 03:44:19;;;;;;;4.67;4.20;;;15.90;99.90;;;;;;5052534;28;20909;-77
2023/06/08 03:46:46;;;;;;;3.90;3.60;;;15.90;99.90;;;;;;5052654;28;20233;-79
2023/06/08 03:49:12;;;;;;;3.63;3.43;;;15.90;99.90;;;;;;5053017;28;20214;-79
2023/06/08 03:51:37;;;;;;;3.70;3.40;;;15.80;99.90;;;;;;5052553;28;20258;-77
2023/06/08 03:54:03;;;;;;;7.73;3.63;;;15.90;99.90;;;;;;5051876;28;20746;-79
2023/06/08 03:56:29;;;;;;;4.20;3.80;;;15.90;99.90;;;;;;5052447;28;20657;-80
2023/06/08 03:58:56;;;;;;;4.70;3.83;;;16.00;99.90;;;;;;5052215;28;20279;-78
2023/06/08 04:01:22;;;;;;;4.47;4.10;;;16.00;99.90;;;;;;5051906;28;20190;-77
2023/06/08 04:03:50;;;;;;;3.90;3.70;;;16.00;99.90;;;;;;5052006;28;20163;-78
2023/06/08 04:06:16;;;;;;;4.07;3.77;;;16.00;99.90;;;;;;5052188;28;20175;-78
2023/06/08 04:08:44;;;;;;;4.23;3.93;;;16.00;99.90;;;;;;5051987;28;20176;-78
2023/06/08 04:11:10;;;;;;;3.90;3.60;;;15.90;99.90;;;;;;5051910;28;20928;-77
2023/06/08 04:13:37;;;;;;;4.30;4.00;;;16.00;99.90;;;;;;5052060;28;20187;-78
2023/06/08 04:16:08;;;;;;;4.00;3.80;;;16.00;99.90;;;;;;5052148;28;20600;-80
2023/06/08 04:18:35;;;;;;;4.03;3.60;;;16.10;99.90;;;;;;5052732;28;20160;-77
2023/06/08 04:21:01;;;;;;;4.53;3.83;;;16.10;99.90;;;;;;5058381;28;20179;-78
2023/06/08 04:23:27;;;;;;;4.00;3.77;;;16.20;99.90;;;;;;5058416;28;20229;-78
2023/06/08 04:25:54;;;;;;;3.63;3.37;;;16.20;99.90;;;;;;5058447;28;20425;-78
2023/06/08 04:28:21;;;;;;;4.13;3.60;;;16.20;99.90;;;;;;5058595;28;20260;-79
2023/06/08 04:30:48;;;;;;;3.63;3.43;;;16.30;99.90;;;;;;5058194;28;20240;-79
2023/06/08 04:33:15;;;;;;;4.40;4.10;;;16.40;99.90;;;;;;5058506;28;20178;-79
2023/06/08 04:35:41;;;;;;;4.43;4.03;;;16.50;99.90;;;;;;5058303;28;20203;-79
2023/06/08 04:38:16;;;;;;;5.47;4.90;;;16.50;99.90;;;;;;5058755;28;20208;-80
2023/06/08 04:40:53;;;;;;;4.67;4.27;;;16.60;99.90;;;;;;5059593;28;20155;-78
2023/06/08 04:43:20;;;;;;;4.03;3.70;;;16.70;99.90;;;;;;5071833;28;20217;-78
2023/06/08 04:45:57;;;;;;;4.47;4.07;;;16.80;99.90;;;;;;5062233;28;20186;-79
2023/06/08 04:48:25;;;;;;;4.07;3.87;;;16.90;99.90;;;;;;5059258;28;20166;-78
2023/06/08 04:50:52;;;;;;;3.57;3.37;;;17.00;99.90;;;;;;5057955;28;20293;-79
2023/06/08 04:53:21;;;;;;;4.20;3.90;;;17.00;99.90;;;;;;5058314;28;20180;-80
2023/06/08 04:55:48;;;;;;;4.27;3.87;;;17.00;99.90;;;;;;5057845;28;20725;-78
2023/06/08 04:58:14;;;;;;;3.97;3.57;;;17.00;99.90;;;;;;5058183;28;20182;-78
2023/06/08 05:00:41;;;;;;;3.73;3.50;;;17.00;99.90;;;;;;5058154;28;20546;-78
2023/06/08 05:03:07;;;;;;;4.50;4.17;;;16.90;99.90;;;;;;5057944;28;20175;-79
2023/06/08 05:05:33;;;;;;;3.83;3.53;;;16.90;99.90;;;;;;5039988;28;20270;-78
2023/06/08 05:07:59;;;;;;;5.60;4.03;;;16.90;99.90;;;;;;5058342;28;20258;-79
2023/06/08 05:10:24;;;;;;;4.20;3.90;;;16.90;99.90;;;;;;5040185;28;20653;-78
2023/06/08 05:12:52;;;;;;;5.17;4.17;;;17.00;99.90;;;;;;5057911;28;20172;-78
2023/06/08 05:15:18;;;;;;;4.57;3.33;;;17.00;99.90;;;;;;5057849;28;20207;-80
2023/06/08 05:17:44;;;;;;;4.17;3.80;;;17.10;99.90;;;;;;5040164;28;20175;-78
2023/06/08 05:20:10;;;;;;;4.33;3.77;;;17.20;99.90;;;;;;5058037;28;20174;-77
2023/06/08 05:22:36;;;;;;;5.13;3.70;;;17.20;99.90;;;;;;5057644;28;20172;-80
2023/06/08 05:25:01;;;;;;;3.67;3.47;;;17.20;99.90;;;;;;5057769;28;20202;-78
2023/06/08 05:27:27;;;;;;;4.30;4.00;;;17.20;99.90;;;;;;5057918;28;20214;-78
2023/06/08 05:29:53;;;;;;;3.90;3.60;;;17.40;99.90;;;;;;5059679;28;20237;-78
2023/06/08 05:32:21;;;;;;;3.90;3.60;;;17.40;99.90;;;;;;5053731;28;20706;-77
2023/06/08 05:34:47;;;;;;;3.83;3.53;;;17.50;99.90;;;;;;5054558;28;20200;-78
2023/06/08 05:37:14;;;;;;;5.87;3.83;;;17.40;99.90;;;;;;5054831;28;20207;-78
2023/06/08 05:39:40;;;;;;;3.80;3.50;;;17.40;99.90;;;;;;5054790;28;20176;-78
2023/06/08 05:42:06;;;;;;;3.77;3.57;;;17.50;99.90;;;;;;5054551;28;20252;-78
2023/06/08 05:44:32;;;;;;;3.97;3.67;;;17.60;99.90;;;;;;5054361;28;20229;-79
2023/06/08 05:46:58;;;;;;;3.83;3.53;;;17.60;99.90;;;;;;5054507;28;20183;-78
2023/06/08 05:49:24;;;;;;;3.63;3.43;;;17.70;99.90;;;;;;5054303;28;20180;-80
2023/06/08 05:51:50;;;;;;;7.00;4.20;;;17.80;99.90;;;;;;5053902;28;20232;-81
2023/06/08 05:54:16;;;;;;;4.67;4.23;;;17.80;99.90;;;;;;5036103;28;20179;-79
2023/06/08 05:56:42;;;;;;;4.73;3.57;;;18.00;99.90;;;;;;5054200;28;20545;-78
2023/06/08 05:59:08;;;;;;;3.40;3.20;;;18.00;99.90;;;;;;5054260;28;20529;-80
2023/06/08 06:01:34;;;;;;;3.60;3.30;;;18.00;99.90;;;;;;5054102;28;20206;-78
2023/06/08 06:04:00;;;;;;;4.10;3.80;;;18.00;99.90;;;;;;5053784;28;20172;-78
2023/06/08 06:06:25;;;;;;;4.53;4.20;;;18.10;99.90;;;;;;5053898;28;20221;-78
2023/06/08 06:08:51;;;;;;;3.90;3.60;;;18.20;99.90;;;;;;5054069;28;20255;-78
2023/06/08 06:11:17;;;;;;;4.20;3.90;;;18.40;99.90;;;;;;5053870;28;20200;-77
2023/06/08 06:13:43;;;;;;;3.07;2.87;;;18.60;99.90;;;;;;5053551;28;20207;-79
2023/06/08 06:16:09;;;;;;;3.60;3.40;;;18.70;99.90;;;;;;5053782;28;20212;-78
2023/06/08 06:18:35;;;;;;;3.43;3.23;;;18.70;99.90;;;;;;5054086;28;20167;-79
2023/06/08 06:21:01;;;;;;;4.20;3.90;;;18.70;99.90;;;;;;5053795;28;20172;-77
2023/06/08 06:23:27;;;;;;;3.53;3.33;;;18.80;99.90;;;;;;5035498;28;20654;-79
2023/06/08 06:25:52;;;;;;;3.47;3.17;;;18.90;99.90;;;;;;5053693;28;20698;-77
2023/06/08 06:28:18;;;;;;;3.50;3.20;;;19.10;99.90;;;;;;5052585;28;20179;-76
2023/06/08 06:30:44;;;;;;;3.33;3.13;;;19.00;99.90;;;;;;5053513;28;20230;-77
2023/06/08 06:33:09;;;;;;;3.23;3.13;;;19.10;99.90;;;;;;5053530;28;20176;-77
2023/06/08 06:35:35;;;;;;;3.57;3.27;;;19.40;99.90;;;;;;5053135;28;20196;-77
2023/06/08 06:38:01;;;;;;;3.10;2.97;;;19.40;99.90;;;;;;5053579;28;20635;-77
2023/06/08 06:40:27;;;;;;;3.20;3.00;;;19.40;99.90;;;;;;5055332;28;20179;-78
2023/06/08 06:42:52;;;;;;;3.07;2.97;;;19.60;99.90;;;;;;5057851;28;20628;-79
2023/06/08 06:45:18;;;;;;;3.60;3.30;;;19.70;99.90;;;;;;5059353;28;20200;-78
2023/06/08 06:47:44;;;;;;;3.60;3.30;;;19.70;99.90;;;;;;5062076;28;20179;-78
2023/06/08 06:50:10;;;;;;;3.47;3.27;;;19.80;99.90;;;;;;5053227;28;20183;-78
2023/06/08 06:52:36;;;;;;;3.20;3.10;;;19.80;99.90;;;;;;5053249;28;20164;-77
2023/06/08 06:55:04;;;;;;;3.10;3.00;;;19.80;99.90;;;;;;5052620;28;20641;-77
2023/06/08 06:57:32;;;;;;;3.20;3.10;;;19.90;99.90;;;;;;5052777;28;20551;-79
2023/06/08 07:00:01;;;;;;;3.90;3.60;;;19.90;99.90;;;;;;5052946;28;20171;-78
2023/06/08 07:02:28;;;;;;;4.30;4.07;;;19.80;99.90;;;;;;5052882;28;20172;-77
2023/06/08 07:04:55;;;;;;;3.47;3.27;;;19.80;99.90;;;;;;5052498;28;20190;-77
2023/06/08 07:07:23;;;;;;;3.53;3.33;;;19.80;99.90;;;;;;5052968;28;20164;-81
2023/06/08 07:09:49;;;;;;;3.50;3.30;;;19.80;99.90;;;;;;5052829;28;20176;-79
2023/06/08 07:12:15;;;;;;;3.63;3.33;;;19.90;99.90;;;;;;5052735;28;20183;-78
2023/06/08 07:14:40;;;;;;;3.63;3.43;;;20.20;99.90;;;;;;5052452;28;20213;-79
2023/06/08 07:17:06;;;;;;;3.60;3.40;;;20.50;99.90;;;;;;5052764;28;20524;-80
2023/06/08 07:19:33;;;;;;;3.70;3.50;;;20.60;99.90;;;;;;5055667;28;20171;-77
2023/06/08 07:21:59;;;;;;;4.10;3.90;;;20.30;99.90;;;;;;5052759;28;20635;-79
2023/06/08 07:24:24;;;;;;;3.43;3.33;;;20.20;99.90;;;;;;5052273;28;20179;-78
2023/06/08 07:26:50;;;;;;;3.37;3.17;;;20.40;99.90;;;;;;5052634;28;20176;-77
2023/06/08 07:29:16;;;;;;;3.47;3.10;;;20.40;99.90;;;;;;5052629;28;20172;-78
2023/06/08 07:31:42;;;;;;;3.43;3.23;;;20.70;99.90;;;;;;5034572;28;20270;-79
2023/06/08 07:34:07;;;;;;;3.80;3.60;;;20.90;99.90;;;;;;5051661;28;20203;-79
2023/06/08 07:36:35;;;;;;;3.80;3.50;;;21.00;99.90;;;;;;5052427;28;20211;-82
2023/06/08 07:39:03;;;;;;;3.60;3.40;;;21.10;99.90;;;;;;5052346;28;20199;-79
2023/06/08 07:41:29;;;;;;;4.00;3.70;;;21.20;99.90;;;;;;5053444;28;20259;-79
2023/06/08 07:43:55;;;;;;;4.00;3.80;;;21.20;99.90;;;;;;5051998;28;20262;-82
2023/06/08 07:46:21;;;;;;;3.87;3.57;;;21.00;99.90;;;;;;5052315;28;20172;-81
2023/06/08 07:48:47;;;;;;;4.00;3.70;;;21.10;99.90;;;;;;5052508;28;20531;-80
2023/06/08 07:51:14;;;;;;;4.13;3.83;;;21.30;99.90;;;;;;5051924;28;20774;-83
2023/06/08 07:53:40;;;;;;;3.90;3.70;;;21.30;99.90;;;;;;5051233;28;20239;-80
2023/06/08 07:56:06;;;;;;;3.83;3.63;;;21.30;99.90;;;;;;5052159;28;20345;-81
2023/06/08 07:58:33;;;;;;;4.00;3.70;;;21.50;99.90;;;;;;5051969;28;20585;-82
2023/06/08 08:01:02;;;;;;;4.20;3.80;;;21.20;99.90;;;;;;5052291;28;20176;-82
2023/06/08 08:03:28;;;;;;;4.37;3.97;;;21.20;99.90;;;;;;5052015;28;20167;-82
2023/06/08 08:05:54;;;;;;;3.90;3.63;;;21.40;99.90;;;;;;5052120;28;20180;-82
2023/06/08 08:08:20;;;;;;;3.80;3.60;;;21.60;99.90;;;;;;5062326;28;20183;-81
2023/06/08 08:10:47;;;;;;;3.83;3.63;;;21.70;99.90;;;;;;5073124;28;20179;-81
2023/06/08 08:13:13;;;;;;;3.87;3.57;;;21.70;99.90;;;;;;5074895;28;20164;-78
2023/06/08 08:15:42;;;;;;;4.40;4.03;;;21.90;99.90;;;;;;5075997;28;20223;-80
2023/06/08 08:18:08;;;;;;;3.60;3.40;;;21.90;99.90;;;;;;5077322;28;20144;-82
2023/06/08 08:20:35;;;;;;;3.80;3.60;;;22.00;99.90;;;;;;5078038;28;20171;-81
2023/06/08 08:23:01;;;;;;;3.70;3.50;;;22.00;99.90;;;;;;5068636;28;20647;-78
2023/06/08 08:25:26;;;;;;;4.40;4.10;;;21.90;99.90;;;;;;5056752;28;20175;-81
2023/06/08 08:27:53;;;;;;;3.80;3.60;;;22.10;99.90;;;;;;5055918;28;20183;-78
2023/06/08 08:30:18;;;;;;;4.50;4.20;;;22.20;99.90;;;;;;5055439;28;20186;-81
2023/06/08 08:32:44;;;;;;;4.67;4.33;;;22.00;99.90;;;;;;5054947;28;20176;-82
2023/06/08 08:35:10;;;;;;;4.50;4.20;;;22.10;99.90;;;;;;5052638;28;20207;-81
2023/06/08 08:37:36;;;;;;;4.50;4.20;;;22.10;99.90;;;;;;5052505;28;20693;-82
2023/06/08 08:40:04;;;;;;;4.37;4.13;;;21.90;99.90;;;;;;5053589;28;20180;-79
2023/06/08 08:42:31;;;;;;;4.30;4.07;;;21.90;99.90;;;;;;5052868;28;20175;-80
2023/06/08 08:45:00;;;;;;;3.95;3.75;;;22.00;99.90;;;;;;5063712;28;20235;-78
2023/06/08 08:47:29;;;;;;;4.10;3.80;;;22.30;99.90;;;;;;5071403;28;20183;-81
2023/06/08 08:50:03;;;;;;;4.47;4.25;;;22.80;99.90;;;;;;5068061;28;20204;-79
2023/06/08 08:52:33;;;;;;;4.70;4.40;;;23.10;99.90;;;;;;5056099;28;20170;-79
2023/06/08 08:55:00;;;;;;;4.57;4.28;;;23.20;99.90;;;;;;5051068;28;20203;-82
2023/06/08 08:57:30;;;;;;;4.10;3.80;;;23.10;99.90;;;;;;5052046;28;20628;-82
2023/06/08 08:59:56;;;;;;;4.50;4.13;;;22.80;99.90;;;;;;5052171;28;20663;-81
2023/06/08 09:02:23;;;;;;;4.10;3.90;;;22.90;99.90;;;;;;5051749;28;20172;-81
2023/06/08 09:04:49;;;;;;;4.07;3.88;;;22.80;99.90;;;;;;5051207;28;20184;-78
2023/06/08 09:07:20;;;;;;;4.50;4.10;;;22.70;99.90;;;;;;5054238;28;20202;-81
2023/06/08 09:10:15;;;;;;;4.30;4.00;;;22.60;99.90;;;;;;5055962;28;20262;-81
2023/06/08 09:12:42;;;;;;;3.88;3.67;;;22.70;99.90;;;;;;5055378;28;20233;-79
2023/06/08 09:15:13;;;;;;;4.22;3.85;;;22.70;99.90;;;;;;5055015;28;20207;-79
2023/06/08 09:17:40;;;;;;;4.75;4.35;;;22.60;99.90;;;;;;5055293;28;20259;-79
2023/06/08 09:20:08;;;;;;;3.67;3.47;;;22.50;99.90;;;;;;5055792;28;20172;-79
2023/06/08 09:22:36;;;;;;;4.00;3.80;;;22.40;99.90;;;;;;5055172;28;20666;-79
2023/06/08 09:25:03;;;;;;;4.30;4.00;;;22.50;99.90;;;;;;5054836;28;20237;-80
2023/06/08 09:27:32;;;;;;;4.65;4.35;;;22.80;99.90;;;;;;5054772;28;20203;-79
2023/06/08 09:30:00;;;;;;;4.05;3.85;;;22.80;99.90;;;;;;5055154;28;20175;-80
2023/06/08 09:32:33;;;;;;;3.72;3.53;;;22.70;99.90;;;;;;5055598;28;20176;-80
2023/06/08 09:35:04;;;;;;;3.97;3.78;;;22.40;99.90;;;;;;5055761;28;20288;-81
2023/06/08 09:37:36;;;;;;;3.88;3.67;;;22.40;99.90;;;;;;5055487;28;20616;-79
2023/06/08 09:40:09;;;;;;;3.75;3.55;;;22.40;99.90;;;;;;5055234;28;20164;-79
2023/06/08 09:42:53;;;;;;;3.85;3.65;;;22.50;99.90;;;;;;5055053;28;20205;-83
2023/06/08 09:45:21;;;;;;;3.90;3.70;;;22.60;99.90;;;;;;5055074;28;20160;-81
2023/06/08 09:47:47;;;;;;;5.00;4.25;;;22.50;99.90;;;;;;5054878;28;20168;-81
2023/06/08 09:50:13;;;;;;;3.72;3.53;;;22.80;99.90;;;;;;5054844;28;20215;-79
2023/06/08 09:52:39;;;;;;;4.07;3.88;;;23.00;99.90;;;;;;5055495;28;20171;-80
2023/06/08 09:55:06;;;;;;;3.55;3.35;;;23.30;99.90;;;;;;5054908;28;20278;-81
2023/06/08 09:57:36;;;;;;;4.70;4.38;;;23.60;99.90;;;;;;5055294;28;20190;-80
2023/06/08 10:00:15;;;;;;;4.68;4.38;;;23.80;99.90;;;;;;5054858;28;20176;-80
2023/06/08 10:02:59;;;;;;;3.17;3.03;;;23.80;99.90;;;;;;5055058;28;20174;-82
2023/06/08 10:05:33;;;;;;;3.33;3.22;;;23.80;99.90;;;;;;5037355;28;20180;-81
2023/06/08 10:07:59;;;;;;;3.22;3.03;;;23.90;99.90;;;;;;5055197;28;20159;-80
2023/06/08 10:10:33;;;;;;;2.80;2.70;;;23.60;99.90;;;;;;5054675;28;20174;-82
2023/06/08 10:12:59;;;;;;;4.00;3.70;;;23.50;99.90;;;;;;5055355;28;20160;-82
2023/06/08 10:15:27;;;;;;;3.40;3.20;;;23.70;99.90;;;;;;5058288;28;20338;-84
2023/06/08 10:17:54;;;;;;;3.63;3.33;;;23.80;99.90;;;;;;5060712;28;20168;-83
2023/06/08 10:20:21;;;;;;;3.53;3.22;;;23.90;99.90;;;;;;5058643;28;20187;-83
2023/06/08 10:22:47;;;;;;;3.30;3.10;;;23.90;99.90;;;;;;5057946;28;20175;-83
2023/06/08 10:25:16;;;;;;;6.55;4.15;;;24.00;99.90;;;;;;5058016;28;20175;-85
2023/06/08 10:27:50;;;;;;;3.28;3.00;;;24.00;99.90;;;;;;5057680;28;20263;-84
2023/06/08 10:30:40;;;;;;;3.33;3.13;;;24.20;99.90;;;;;;5055564;28;20175;-85
2023/06/08 10:33:09;;;;;;;3.50;3.10;;;23.90;99.90;;;;;;5055512;28;20164;-83
2023/06/08 10:35:36;;;;;;;3.03;2.83;;;24.00;99.90;;;;;;5040542;28;20215;-84
2023/06/08 10:38:12;;;;;;;3.50;3.30;;;24.10;99.90;;;;;;5055407;28;20179;-82
2023/06/08 10:40:49;;;;;;;3.38;3.28;;;24.10;99.90;;;;;;5055588;28;20178;-82
2023/06/08 10:43:16;;;;;;;5.65;3.60;;;24.10;99.90;;;;;;5054778;28;20658;-83
2023/06/08 10:45:45;;;;;;;3.70;3.50;;;23.90;99.90;;;;;;5057666;28;20172;-83
2023/06/08 10:48:15;;;;;;;3.00;2.90;;;23.90;99.90;;;;;;5043267;28;20187;-82
2023/06/08 10:50:46;;;;;;;3.15;3.05;;;24.00;99.90;;;;;;5047515;28;20242;-82
2023/06/08 10:53:16;;;;;;;3.40;3.20;;;24.10;99.90;;;;;;5054709;28;20571;-83
2023/06/08 10:55:46;;;;;;;3.00;2.90;;;24.20;99.90;;;;;;5054179;28;20213;-84
2023/06/08 10:58:19;;;;;;;2.85;2.70;;;24.20;99.90;;;;;;5040174;28;20187;-85
2023/06/08 11:00:52;;;;;;;2.67;2.47;;;24.30;99.90;;;;;;5057476;28;20182;-83
2023/06/08 11:03:21;;;;;;;2.70;2.60;;;24.40;99.90;;;;;;5053798;28;20180;-83
2023/06/08 11:05:53;;;;;;;2.60;2.50;;;24.70;99.90;;;;;;5053932;28;20251;-83
2023/06/08 11:08:19;;;;;;;2.92;2.80;;;24.90;99.90;;;;;;5053939;28;20160;-83
2023/06/08 11:10:52;;;;;;;2.80;2.70;;;25.00;99.90;;;;;;5053718;28;20172;-83
2023/06/08 11:13:18;;;;;;;2.90;2.80;;;25.10;99.90;;;;;;5053559;28;20188;-83
2023/06/08 11:15:46;;;;;;;2.63;2.53;;;25.20;99.90;;;;;;5035305;28;20239;-85
2023/06/08 11:18:12;;;;;;;2.80;2.70;;;25.20;99.90;;;;;;5053498;28;20193;-84
2023/06/08 11:20:41;;;;;;;3.33;3.13;;;25.20;99.90;;;;;;5053689;28;20573;-84
2023/06/08 11:23:10;;;;;;;2.67;2.58;;;25.20;99.90;;;;;;5055990;28;20599;-83
2023/06/08 11:25:36;;;;;;;3.08;2.88;;;25.20;99.90;;;;;;5057117;28;20179;-84
2023/06/08 11:28:03;;;;;;;2.83;2.63;;;25.30;99.90;;;;;;5036743;28;20172;-85
2023/06/08 11:30:35;;;;;;;2.42;2.33;;;25.40;99.90;;;;;;5036082;28;20218;-85
2023/06/08 11:33:04;;;;;;;3.63;3.42;;;25.50;99.90;;;;;;5036620;28;20172;-83
2023/06/08 11:35:30;;;;;;;2.90;2.80;;;25.50;99.90;;;;;;5035454;28;20212;-83
2023/06/08 11:38:00;;;;;;;3.13;3.03;;;25.40;99.90;;;;;;5035267;28;20539;-85
2023/06/08 11:40:28;;;;;;;2.85;2.72;;;25.30;99.90;;;;;;5052646;28;20167;-83
2023/06/08 11:42:55;;;;;;;3.67;3.47;;;25.40;99.90;;;;;;5035777;28;20200;-83
2023/06/08 11:45:22;;;;;;;3.10;3.00;;;25.50;99.90;;;;;;5053197;28;20175;-85
2023/06/08 11:47:52;;;;;;;3.92;3.63;;;25.60;99.90;;;;;;5035945;28;20172;-84
2023/06/08 11:50:19;;;;;;;2.88;2.67;;;25.70;99.90;;;;;;5052915;28;20276;-85
2023/06/08 11:52:47;;;;;;;3.05;2.95;;;25.90;99.90;;;;;;5053121;28;20212;-83
2023/06/08 11:55:18;;;;;;;2.47;2.38;;;26.00;99.90;;;;;;5052680;28;20710;-84
2023/06/08 11:57:59;;;;;;;2.65;2.55;;;26.10;99.90;;;;;;5053181;28;20248;-85
2023/06/08 12:00:31;;;;;;;3.40;3.20;;;25.90;99.90;;;;;;5059574;28;20160;-86
2023/06/08 12:02:58;;;;;;;3.13;2.92;;;26.00;99.90;;;;;;5054467;28;20498;-86
2023/06/08 12:05:26;;;;;;;3.17;2.90;;;25.90;99.90;;;;;;5055669;28;20171;-84
2023/06/08 12:07:59;;;;;;;3.08;2.95;;;25.90;99.50;;;;;;5039066;28;20651;-83
2023/06/08 12:10:46;;;;;;;3.10;3.00;;;25.80;99.90;;;;;;5037106;28;20648;-84
2023/06/08 12:13:22;;;;;;;3.20;3.00;;;25.80;99.90;;;;;;5039855;28;20200;-83
2023/06/08 12:15:50;;;;;;;3.55;3.33;;;25.90;99.90;;;;;;5035208;28;20622;-85
2023/06/08 12:18:17;;;;;;;3.50;3.30;;;25.80;99.90;;;;;;5054668;28;20183;-82
2023/06/08 12:20:46;;;;;;;3.45;3.30;;;25.60;99.90;;;;;;5055927;28;20551;-83
2023/06/08 12:23:12;;;;;;;3.40;3.10;;;25.50;99.90;;;;;;5033356;28;20690;-82
2023/06/08 12:25:40;;;;;;;3.75;3.45;;;25.20;99.90;;;;;;5047545;28;20274;-83
2023/06/08 12:28:15;;;;;;;3.28;3.10;;;25.20;99.90;;;;;;5034959;28;20171;-83
2023/06/08 12:30:41;;;;;;;3.58;3.20;;;24.90;99.90;;;;;;5052824;28;20171;-84
2023/06/08 12:33:07;;;;;;;3.35;3.15;;;24.80;99.90;;;;;;5052818;28;20164;-87
2023/06/08 12:35:32;;;;;;;3.28;3.08;;;24.70;99.90;;;;;;5034488;28;20238;-86
2023/06/08 12:37:58;;;;;;;3.80;3.30;;;24.70;99.90;;;;;;5063196;28;20172;-85
2023/06/08 12:40:24;;;;;;;3.53;3.33;;;24.60;99.90;;;;;;5062750;28;20233;-86
2023/06/08 12:42:50;;;;;;;4.00;3.70;;;24.40;99.90;;;;;;5040879;28;20167;-83
2023/06/08 12:45:20;;;;;;;3.70;3.50;;;24.30;99.90;;;;;;5040079;28;20290;-85
2023/06/08 12:47:47;;;;;;;3.28;3.08;;;24.30;99.90;;;;;;5057542;28;20266;-85
2023/06/08 12:50:13;;;;;;;4.25;3.78;;;24.10;99.90;;;;;;5059022;28;20810;-86